sensor_id;sensor_type;location;lat;lon;timestamp;pressure;altitude;pressure_sealevel;temperature;humidity
77706;BME280;66874;45.274;5.880;2024-01-30T00:01:13;100577.19;;;2.08;70.93
77706;BME280;66874;45.274;5.880;2024-01-30T00:03:38;100578.91;;;2.08;70.91
77706;BME280;66874;45.274;5.880;2024-01-30T00:06:04;100577.94;;;2.06;71.03
77706;BME280;66874;45.274;5.880;2024-01-30T00:08:29;100581.22;;;2.02;71.06
77706;BME280;66874;45.274;5.880;2024-01-30T00:10:55;100575.94;;;1.99;71.07
77706;BME280;66874;45.274;5.880;2024-01-30T00:13:20;100581.22;;;2.02;71.26
77706;BME280;66874;45.274;5.880;2024-01-30T00:15:46;100583.84;;;2.03;71.16
77706;BME280;66874;45.274;5.880;2024-01-30T00:18:11;100582.94;;;2.01;71.26
77706;BME280;66874;45.274;5.880;2024-01-30T00:20:36;100582.84;;;2.00;71.31
77706;BME280;66874;45.274;5.880;2024-01-30T00:23:02;100579.41;;;1.99;71.38
77706;BME280;66874;45.274;5.880;2024-01-30T00:25:27;100581.06;;;1.97;71.19
77706;BME280;66874;45.274;5.880;2024-01-30T00:27:53;100579.34;;;1.98;71.53
77706;BME280;66874;45.274;5.880;2024-01-30T00:30:18;100581.94;;;1.98;71.38
77706;BME280;66874;45.274;5.880;2024-01-30T00:32:44;100577.69;;;2.00;71.51
77706;BME280;66874;45.274;5.880;2024-01-30T00:35:09;100581.19;;;2.00;71.39
77706;BME280;66874;45.274;5.880;2024-01-30T00:37:36;100576.72;;;1.96;71.65
77706;BME280;66874;45.274;5.880;2024-01-30T00:40:01;100574.06;;;1.94;71.60
77706;BME280;66874;45.274;5.880;2024-01-30T00:42:27;100574.75;;;1.90;71.72
77706;BME280;66874;45.274;5.880;2024-01-30T00:44:52;100579.88;;;1.89;71.74
77706;BME280;66874;45.274;5.880;2024-01-30T00:47:17;100567.84;;;1.89;71.72
77706;BME280;66874;45.274;5.880;2024-01-30T00:49:43;100567.84;;;1.89;71.88
77706;BME280;66874;45.274;5.880;2024-01-30T00:52:08;100576.41;;;1.88;71.76
77706;BME280;66874;45.274;5.880;2024-01-30T00:54:34;100576.03;;;1.79;71.79
77706;BME280;66874;45.274;5.880;2024-01-30T00:56:59;100571.56;;;1.75;71.99
77706;BME280;66874;45.274;5.880;2024-01-30T00:59:25;100580.13;;;1.74;72.08
77706;BME280;66874;45.274;5.880;2024-01-30T01:01:50;100572.25;;;1.71;72.11
77706;BME280;66874;45.274;5.880;2024-01-30T01:04:16;100586.03;;;1.71;72.24
77706;BME280;66874;45.274;5.880;2024-01-30T01:06:42;100586.03;;;1.71;72.26
77706;BME280;66874;45.274;5.880;2024-01-30T01:09:10;100578.38;;;1.73;72.27
77706;BME280;66874;45.274;5.880;2024-01-30T01:11:36;100578.38;;;1.73;72.45
77706;BME280;66874;45.274;5.880;2024-01-30T01:14:03;100573.31;;;1.76;72.44
77706;BME280;66874;45.274;5.880;2024-01-30T01:16:28;100579.47;;;1.80;72.47
77706;BME280;66874;45.274;5.880;2024-01-30T01:18:53;100576.09;;;1.81;72.51
77706;BME280;66874;45.274;5.880;2024-01-30T01:21:19;100571.91;;;1.84;72.59
77706;BME280;66874;45.274;5.880;2024-01-30T01:23:44;100578.88;;;1.85;72.50
77706;BME280;66874;45.274;5.880;2024-01-30T01:26:09;100579.78;;;1.87;72.41
77706;BME280;66874;45.274;5.880;2024-01-30T01:28:35;100579.78;;;1.87;72.52
77706;BME280;66874;45.274;5.880;2024-01-30T01:31:00;100575.47;;;1.86;72.58
77706;BME280;66874;45.274;5.880;2024-01-30T01:33:31;100576.19;;;1.84;72.85
77706;BME280;66874;45.274;5.880;2024-01-30T01:35:57;100571.91;;;1.84;72.93
77706;BME280;66874;45.274;5.880;2024-01-30T01:38:23;100576.09;;;1.81;72.63
77706;BME280;66874;45.274;5.880;2024-01-30T01:40:48;100570.81;;;1.78;72.56
77706;BME280;66874;45.274;5.880;2024-01-30T01:43:13;100575.03;;;1.76;72.64
77706;BME280;66874;45.274;5.880;2024-01-30T01:45:39;100567.16;;;1.73;72.72
77706;BME280;66874;45.274;5.880;2024-01-30T01:48:05;100566.22;;;1.70;72.83
77706;BME280;66874;45.274;5.880;2024-01-30T01:50:30;100568.72;;;1.69;72.84
77706;BME280;66874;45.274;5.880;2024-01-30T01:52:56;100577.25;;;1.66;73.03
77706;BME280;66874;45.274;5.880;2024-01-30T01:55:22;100574.53;;;1.63;73.00
77706;BME280;66874;45.274;5.880;2024-01-30T01:57:49;100577.09;;;1.63;73.19
77706;BME280;66874;45.274;5.880;2024-01-30T02:00:15;100577.94;;;1.62;73.19
77706;BME280;66874;45.274;5.880;2024-01-30T02:02:43;100576.09;;;1.60;73.43
77706;BME280;66874;45.274;5.880;2024-01-30T02:05:10;100575.91;;;1.55;73.47
77706;BME280;66874;45.274;5.880;2024-01-30T02:07:36;100572.38;;;1.53;73.44
77706;BME280;66874;45.274;5.880;2024-01-30T02:10:02;100572.50;;;1.56;73.67
77706;BME280;66874;45.274;5.880;2024-01-30T02:12:29;100576.78;;;1.56;73.59
77706;BME280;66874;45.274;5.880;2024-01-30T02:14:54;100572.50;;;1.56;73.55
77706;BME280;66874;45.274;5.880;2024-01-30T02:17:20;100572.59;;;1.58;73.61
77706;BME280;66874;45.274;5.880;2024-01-30T02:19:46;100568.41;;;1.61;73.56
77706;BME280;66874;45.274;5.880;2024-01-30T02:22:12;100568.53;;;1.64;73.65
77706;BME280;66874;45.274;5.880;2024-01-30T02:24:38;100560.81;;;1.64;73.65
77706;BME280;66874;45.274;5.880;2024-01-30T02:27:03;100564.34;;;1.66;73.78
77706;BME280;66874;45.274;5.880;2024-01-30T02:29:28;100578.16;;;1.68;73.96
77706;BME280;66874;45.274;5.880;2024-01-30T02:31:54;100567.16;;;1.73;73.78
77706;BME280;66874;45.274;5.880;2024-01-30T02:34:19;100565.56;;;1.76;73.63
77706;BME280;66874;45.274;5.880;2024-01-30T02:36:45;100564.69;;;1.76;73.85
77706;BME280;66874;45.274;5.880;2024-01-30T02:39:11;100566.53;;;1.78;73.68
77706;BME280;66874;45.274;5.880;2024-01-30T02:41:36;100573.53;;;1.81;73.71
77706;BME280;66874;45.274;5.880;2024-01-30T02:44:03;100573.53;;;1.81;73.72
77706;BME280;66874;45.274;5.880;2024-01-30T02:46:29;100568.28;;;1.79;73.85
77706;BME280;66874;45.274;5.880;2024-01-30T02:48:54;100570.00;;;1.79;73.78
77706;BME280;66874;45.274;5.880;2024-01-30T02:51:19;100572.63;;;1.80;73.87
77706;BME280;66874;45.274;5.880;2024-01-30T02:53:45;100576.09;;;1.81;73.95
77706;BME280;66874;45.274;5.880;2024-01-30T02:56:10;100576.03;;;1.79;74.13
77706;BME280;66874;45.274;5.880;2024-01-30T02:58:36;100568.97;;;1.75;74.12
77706;BME280;66874;45.274;5.880;2024-01-30T03:01:02;100574.16;;;1.75;74.06
77706;BME280;66874;45.274;5.880;2024-01-30T03:03:28;100573.28;;;1.75;74.24
77706;BME280;66874;45.274;5.880;2024-01-30T03:05:53;100568.16;;;1.76;74.23
77706;BME280;66874;45.274;5.880;2024-01-30T03:08:19;100568.25;;;1.78;74.25
77706;BME280;66874;45.274;5.880;2024-01-30T03:10:44;100569.16;;;1.80;74.30
77706;BME280;66874;45.274;5.880;2024-01-30T03:13:10;100565.78;;;1.81;74.24
77706;BME280;66874;45.274;5.880;2024-01-30T03:15:35;100570.13;;;1.82;74.40
77706;BME280;66874;45.274;5.880;2024-01-30T03:18:01;100562.31;;;1.80;74.37
77706;BME280;66874;45.274;5.880;2024-01-30T03:20:29;100568.25;;;1.78;74.24
77706;BME280;66874;45.274;5.880;2024-01-30T03:22:55;100567.28;;;1.76;74.39
77706;BME280;66874;45.274;5.880;2024-01-30T03:25:21;100569.69;;;1.71;74.36
77706;BME280;66874;45.274;5.880;2024-01-30T03:27:46;100560.00;;;1.65;74.50
77706;BME280;66874;45.274;5.880;2024-01-30T03:30:12;100564.84;;;1.58;74.67
77706;BME280;66874;45.274;5.880;2024-01-30T03:32:37;100566.53;;;1.57;74.75
77706;BME280;66874;45.274;5.880;2024-01-30T03:35:03;100563.03;;;1.55;74.84
77706;BME280;66874;45.274;5.880;2024-01-30T03:37:29;100568.19;;;1.55;74.76
77706;BME280;66874;45.274;5.880;2024-01-30T03:39:54;100564.78;;;1.56;74.90
77706;BME280;66874;45.274;5.880;2024-01-30T03:42:20;100563.94;;;1.57;74.68
77706;BME280;66874;45.274;5.880;2024-01-30T03:44:45;100571.63;;;1.56;74.80
77706;BME280;66874;45.274;5.880;2024-01-30T03:47:10;100570.03;;;1.58;75.07
77706;BME280;66874;45.274;5.880;2024-01-30T03:49:36;100566.66;;;1.60;75.10
77706;BME280;66874;45.274;5.880;2024-01-30T03:52:01;100571.81;;;1.60;74.79
77706;BME280;66874;45.274;5.880;2024-01-30T03:54:27;100575.19;;;1.58;75.17
77706;BME280;66874;45.274;5.880;2024-01-30T03:56:52;100572.59;;;1.58;75.13
77706;BME280;66874;45.274;5.880;2024-01-30T03:59:17;100584.66;;;1.59;75.13
77706;BME280;66874;45.274;5.880;2024-01-30T04:01:47;100583.78;;;1.58;75.04
77706;BME280;66874;45.274;5.880;2024-01-30T04:04:12;100580.13;;;1.53;75.19
77706;BME280;66874;45.274;5.880;2024-01-30T04:06:38;100585.22;;;1.52;75.51
77706;BME280;66874;45.274;5.880;2024-01-30T04:09:03;100572.28;;;1.50;75.41
77706;BME280;66874;45.274;5.880;2024-01-30T04:11:28;100576.47;;;1.48;75.56
77706;BME280;66874;45.274;5.880;2024-01-30T04:13:54;100581.44;;;1.43;75.44
77706;BME280;66874;45.274;5.880;2024-01-30T04:16:23;100577.72;;;1.37;75.62
77706;BME280;66874;45.274;5.880;2024-01-30T04:18:48;100577.59;;;1.34;75.55
77706;BME280;66874;45.274;5.880;2024-01-30T04:21:14;100593.88;;;1.33;75.57
77706;BME280;66874;45.274;5.880;2024-01-30T04:23:40;100586.84;;;1.29;75.70
77706;BME280;66874;45.274;5.880;2024-01-30T04:26:06;100593.41;;;1.22;76.00
77706;BME280;66874;45.274;5.880;2024-01-30T04:28:31;100592.34;;;1.17;75.97
77706;BME280;66874;45.274;5.880;2024-01-30T04:30:56;100589.41;;;1.08;75.99
77706;BME280;66874;45.274;5.880;2024-01-30T04:33:22;100587.41;;;1.02;76.15
77706;BME280;66874;45.274;5.880;2024-01-30T04:35:47;100599.38;;;1.00;76.11
77706;BME280;66874;45.274;5.880;2024-01-30T04:38:12;100594.94;;;0.97;76.35
77706;BME280;66874;45.274;5.880;2024-01-30T04:40:39;100597.44;;;0.96;76.33
77706;BME280;66874;45.274;5.880;2024-01-30T04:43:05;100595.78;;;0.96;76.26
77706;BME280;66874;45.274;5.880;2024-01-30T04:45:30;100595.78;;;0.96;76.22
77706;BME280;66874;45.274;5.880;2024-01-30T04:47:55;100596.56;;;0.95;76.18
77706;BME280;66874;45.274;5.880;2024-01-30T04:50:21;100603.28;;;0.92;76.26
77706;BME280;66874;45.274;5.880;2024-01-30T04:52:46;100598.13;;;0.92;76.24
77706;BME280;66874;45.274;5.880;2024-01-30T04:55:12;100592.88;;;0.89;76.29
77706;BME280;66874;45.274;5.880;2024-01-30T04:57:37;100601.47;;;0.89;76.30
77706;BME280;66874;45.274;5.880;2024-01-30T05:00:03;100597.25;;;0.91;76.36
77706;BME280;66874;45.274;5.880;2024-01-30T05:02:28;100597.34;;;0.93;76.38
77706;BME280;66874;45.274;5.880;2024-01-30T05:04:54;100605.19;;;0.96;76.41
77706;BME280;66874;45.274;5.880;2024-01-30T05:07:19;100601.72;;;0.95;76.20
77706;BME280;66874;45.274;5.880;2024-01-30T05:09:44;100599.09;;;0.94;76.33
77706;BME280;66874;45.274;5.880;2024-01-30T05:12:10;100602.41;;;0.91;76.39
77706;BME280;66874;45.274;5.880;2024-01-30T05:14:35;100609.09;;;0.88;76.30
77706;BME280;66874;45.274;5.880;2024-01-30T05:17:00;100608.91;;;0.83;76.25
77706;BME280;66874;45.274;5.880;2024-01-30T05:19:28;100612.16;;;0.79;76.38
77706;BME280;66874;45.274;5.880;2024-01-30T05:21:53;100612.69;;;0.72;76.42
77706;BME280;66874;45.274;5.880;2024-01-30T05:24:19;100616.81;;;0.68;76.67
77706;BME280;66874;45.274;5.880;2024-01-30T05:26:44;100612.44;;;0.66;76.74
77706;BME280;66874;45.274;5.880;2024-01-30T05:29:09;100615.03;;;0.66;76.77
77706;BME280;66874;45.274;5.880;2024-01-30T05:31:35;100620.97;;;0.65;76.88
77706;BME280;66874;45.274;5.880;2024-01-30T05:34:00;100619.06;;;0.61;76.78
77706;BME280;66874;45.274;5.880;2024-01-30T05:36:26;100619.81;;;0.58;76.88
77706;BME280;66874;45.274;5.880;2024-01-30T05:38:51;100621.44;;;0.56;76.77
77706;BME280;66874;45.274;5.880;2024-01-30T05:41:19;100623.84;;;0.53;76.82
77706;BME280;66874;45.274;5.880;2024-01-30T05:43:46;100622.97;;;0.53;76.76
77706;BME280;66874;45.274;5.880;2024-01-30T05:46:11;100630.78;;;0.54;76.66
77706;BME280;66874;45.274;5.880;2024-01-30T05:48:36;100629.81;;;0.52;76.97
77706;BME280;66874;45.274;5.880;2024-01-30T05:51:02;100634.03;;;0.50;76.74
77706;BME280;66874;45.274;5.880;2024-01-30T05:53:29;100634.78;;;0.47;77.00
77706;BME280;66874;45.274;5.880;2024-01-30T05:55:54;100630.44;;;0.46;77.08
77706;BME280;66874;45.274;5.880;2024-01-30T05:58:19;100629.53;;;0.46;77.00
77706;BME280;66874;45.274;5.880;2024-01-30T06:00:45;100634.78;;;0.47;77.04
77706;BME280;66874;45.274;5.880;2024-01-30T06:03:10;100642.56;;;0.49;76.93
77706;BME280;66874;45.274;5.880;2024-01-30T06:05:35;100640.78;;;0.48;77.11
77706;BME280;66874;45.274;5.880;2024-01-30T06:08:02;100646.81;;;0.48;77.09
77706;BME280;66874;45.274;5.880;2024-01-30T06:10:27;100638.91;;;0.44;76.91
77706;BME280;66874;45.274;5.880;2024-01-30T06:12:53;100646.25;;;0.36;77.07
77706;BME280;66874;45.274;5.880;2024-01-30T06:15:18;100640.06;;;0.33;77.08
77706;BME280;66874;45.274;5.880;2024-01-30T06:17:43;100645.06;;;0.30;77.10
77706;BME280;66874;45.274;5.880;2024-01-30T06:20:09;100644.88;;;0.25;77.19
77706;BME280;66874;45.274;5.880;2024-01-30T06:22:35;100643.84;;;0.21;77.21
77706;BME280;66874;45.274;5.880;2024-01-30T06:25:00;100652.88;;;0.31;77.50
77706;BME280;66874;45.274;5.880;2024-01-30T06:27:26;100650.94;;;0.45;77.35
77706;BME280;66874;45.274;5.880;2024-01-30T06:29:51;100661.03;;;0.58;77.08
77706;BME280;66874;45.274;5.880;2024-01-30T06:32:16;100658.84;;;0.67;76.90
77706;BME280;66874;45.274;5.880;2024-01-30T06:34:42;100672.63;;;0.68;76.84
77706;BME280;66874;45.274;5.880;2024-01-30T06:37:09;100664.69;;;0.63;76.47
77706;BME280;66874;45.274;5.880;2024-01-30T06:39:34;100668.75;;;0.58;76.67
77706;BME280;66874;45.274;5.880;2024-01-30T06:42:00;100671.84;;;0.51;77.04
77706;BME280;66874;45.274;5.880;2024-01-30T06:44:25;100672.50;;;0.47;76.91
77706;BME280;66874;45.274;5.880;2024-01-30T06:46:51;100680.16;;;0.45;76.99
77706;BME280;66874;45.274;5.880;2024-01-30T06:49:16;100684.41;;;0.45;77.01
77706;BME280;66874;45.274;5.880;2024-01-30T06:51:41;100685.22;;;0.44;77.00
77706;BME280;66874;45.274;5.880;2024-01-30T06:54:07;100683.31;;;0.40;76.81
77706;BME280;66874;45.274;5.880;2024-01-30T06:56:32;100689.28;;;0.39;76.86
77706;BME280;66874;45.274;5.880;2024-01-30T06:58:57;100689.28;;;0.39;76.97
77706;BME280;66874;45.274;5.880;2024-01-30T07:01:30;100690.06;;;0.38;77.04
77706;BME280;66874;45.274;5.880;2024-01-30T07:03:57;100690.84;;;0.35;77.13
77706;BME280;66874;45.274;5.880;2024-01-30T07:06:22;100689.19;;;0.37;76.92
77706;BME280;66874;45.274;5.880;2024-01-30T07:08:49;100700.47;;;0.39;77.08
77706;BME280;66874;45.274;5.880;2024-01-30T07:11:19;100695.22;;;0.38;77.03
77706;BME280;66874;45.274;5.880;2024-01-30T07:13:45;100697.00;;;0.39;77.06
77706;BME280;66874;45.274;5.880;2024-01-30T07:16:10;100697.91;;;0.39;77.06
77706;BME280;66874;45.274;5.880;2024-01-30T07:18:35;100690.06;;;0.38;76.90
77706;BME280;66874;45.274;5.880;2024-01-30T07:21:01;100697.81;;;0.38;76.81
77706;BME280;66874;45.274;5.880;2024-01-30T07:23:26;100706.41;;;0.38;76.85
77706;BME280;66874;45.274;5.880;2024-01-30T07:25:51;100702.16;;;0.39;76.97
77706;BME280;66874;45.274;5.880;2024-01-30T07:28:17;100706.41;;;0.38;76.98
77706;BME280;66874;45.274;5.880;2024-01-30T07:30:42;100706.50;;;0.40;76.82
77706;BME280;66874;45.274;5.880;2024-01-30T07:33:08;100709.13;;;0.41;77.05
77706;BME280;66874;45.274;5.880;2024-01-30T07:35:34;100701.50;;;0.43;76.86
77706;BME280;66874;45.274;5.880;2024-01-30T07:38:00;100709.34;;;0.46;77.11
77706;BME280;66874;45.274;5.880;2024-01-30T07:40:25;100713.03;;;0.51;76.95
77706;BME280;66874;45.274;5.880;2024-01-30T07:42:53;100722.59;;;0.54;76.74
77706;BME280;66874;45.274;5.880;2024-01-30T07:45:19;100725.41;;;0.58;76.68
77706;BME280;66874;45.274;5.880;2024-01-30T07:47:49;100729.66;;;0.58;76.92
77706;BME280;66874;45.274;5.880;2024-01-30T07:50:15;100734.16;;;0.62;76.70
77706;BME280;66874;45.274;5.880;2024-01-30T07:52:40;100740.41;;;0.67;77.05
77706;BME280;66874;45.274;5.880;2024-01-30T07:55:06;100739.66;;;0.69;76.83
77706;BME280;66874;45.274;5.880;2024-01-30T07:57:33;100743.19;;;0.71;76.90
77706;BME280;66874;45.274;5.880;2024-01-30T07:59:59;100739.88;;;0.74;76.92
77706;BME280;66874;45.274;5.880;2024-01-30T08:02:24;100735.75;;;0.78;76.72
77706;BME280;66874;45.274;5.880;2024-01-30T08:04:50;100740.25;;;0.82;76.74
77706;BME280;66874;45.274;5.880;2024-01-30T08:07:15;100747.50;;;0.90;76.82
77706;BME280;66874;45.274;5.880;2024-01-30T08:09:43;100744.41;;;0.97;76.87
77706;BME280;66874;45.274;5.880;2024-01-30T08:12:08;100743.06;;;1.06;76.55
77706;BME280;66874;45.274;5.880;2024-01-30T08:14:33;100745.94;;;1.12;76.86
77706;BME280;66874;45.274;5.880;2024-01-30T08:16:59;100735.69;;;1.13;76.70
77706;BME280;66874;45.274;5.880;2024-01-30T08:19:24;100736.75;;;1.18;76.62
77706;BME280;66874;45.274;5.880;2024-01-30T08:21:49;100739.69;;;1.26;76.67
77706;BME280;66874;45.274;5.880;2024-01-30T08:24:15;100735.88;;;1.37;76.73
77706;BME280;66874;45.274;5.880;2024-01-30T08:26:40;100737.25;;;1.49;76.61
77706;BME280;66874;45.274;5.880;2024-01-30T08:29:06;100729.25;;;1.62;76.51
77706;BME280;66874;45.274;5.880;2024-01-30T08:31:31;100727.09;;;1.73;76.37
77706;BME280;66874;45.274;5.880;2024-01-30T08:33:56;100734.44;;;1.83;76.41
77706;BME280;66874;45.274;5.880;2024-01-30T08:36:22;100733.19;;;1.94;76.35
77706;BME280;66874;45.274;5.880;2024-01-30T08:38:47;100729.22;;;2.02;76.30
77706;BME280;66874;45.274;5.880;2024-01-30T08:41:13;100727.00;;;2.11;76.27
77706;BME280;66874;45.274;5.880;2024-01-30T08:43:38;100731.88;;;2.25;76.21
77706;BME280;66874;45.274;5.880;2024-01-30T08:46:03;100724.44;;;2.32;76.32
77706;BME280;66874;45.274;5.880;2024-01-30T08:48:29;100723.94;;;2.41;76.19
77706;BME280;66874;45.274;5.880;2024-01-30T08:50:55;100731.09;;;2.48;76.17
77706;BME280;66874;45.274;5.880;2024-01-30T08:53:20;100726.28;;;2.57;76.24
77706;BME280;66874;45.274;5.880;2024-01-30T08:55:46;100722.44;;;2.68;76.20
77706;BME280;66874;45.274;5.880;2024-01-30T08:58:11;100717.50;;;2.75;76.31
77706;BME280;66874;45.274;5.880;2024-01-30T09:00:37;100723.81;;;2.81;76.31
77706;BME280;66874;45.274;5.880;2024-01-30T09:03:05;100724.09;;;2.89;76.28
77706;BME280;66874;45.274;5.880;2024-01-30T09:05:30;100721.91;;;3.00;76.30
77706;BME280;66874;45.274;5.880;2024-01-30T09:07:56;100723.19;;;3.11;76.33
77706;BME280;66874;45.274;5.880;2024-01-30T09:10:21;100722.00;;;3.25;76.01
77706;BME280;66874;45.274;5.880;2024-01-30T09:12:47;100714.75;;;3.39;76.01
77706;BME280;66874;45.274;5.880;2024-01-30T09:15:12;100710.22;;;3.57;76.11
77706;BME280;66874;45.274;5.880;2024-01-30T09:17:38;100716.88;;;3.75;76.02
77706;BME280;66874;45.274;5.880;2024-01-30T09:20:04;100718.25;;;3.89;75.88
77706;BME280;66874;45.274;5.880;2024-01-30T09:22:30;100709.94;;;3.99;75.75
77706;BME280;66874;45.274;5.880;2024-01-30T09:24:56;100712.78;;;4.07;75.98
77706;BME280;66874;45.274;5.880;2024-01-30T09:27:22;100715.88;;;4.22;75.43
77706;BME280;66874;45.274;5.880;2024-01-30T09:29:47;100710.91;;;4.28;75.41
77706;BME280;66874;45.274;5.880;2024-01-30T09:32:12;100719.13;;;4.42;75.61
77706;BME280;66874;45.274;5.880;2024-01-30T09:34:38;100709.53;;;4.67;75.36
77706;BME280;66874;45.274;5.880;2024-01-30T09:37:04;100709.53;;;4.95;74.91
77706;BME280;66874;45.274;5.880;2024-01-30T09:39:29;100707.81;;;5.26;74.48
77706;BME280;66874;45.274;5.880;2024-01-30T09:42:18;100705.22;;;5.56;74.24
77706;BME280;66874;45.274;5.880;2024-01-30T09:44:47;100698.22;;;5.85;73.72
77706;BME280;66874;45.274;5.880;2024-01-30T09:47:16;100696.22;;;6.08;73.36
77706;BME280;66874;45.274;5.880;2024-01-30T09:49:43;100699.41;;;6.31;73.02
77706;BME280;66874;45.274;5.880;2024-01-30T09:52:08;100702.56;;;6.55;72.70
77706;BME280;66874;45.274;5.880;2024-01-30T09:54:34;100702.22;;;6.78;72.43
77706;BME280;66874;45.274;5.880;2024-01-30T09:57:01;100701.84;;;7.00;72.19
77706;BME280;66874;45.274;5.880;2024-01-30T09:59:26;100702.34;;;7.25;71.95
77706;BME280;66874;45.274;5.880;2024-01-30T10:01:51;100703.75;;;7.50;71.51
77706;BME280;66874;45.274;5.880;2024-01-30T10:04:17;100704.06;;;7.68;71.26
77706;BME280;66874;45.274;5.880;2024-01-30T10:06:43;100695.84;;;7.92;70.98
77706;BME280;66874;45.274;5.880;2024-01-30T10:09:08;100695.44;;;8.21;70.56
77706;BME280;66874;45.274;5.880;2024-01-30T10:11:35;100700.28;;;8.49;70.20
77706;BME280;66874;45.274;5.880;2024-01-30T10:14:01;100700.81;;;8.85;69.77
77706;BME280;66874;45.274;5.880;2024-01-30T10:16:26;100692.47;;;9.12;69.13
77706;BME280;66874;45.274;5.880;2024-01-30T10:18:51;100688.41;;;9.35;68.75
77706;BME280;66874;45.274;5.880;2024-01-30T10:21:17;100696.44;;;9.52;68.12
77706;BME280;66874;45.274;5.880;2024-01-30T10:23:43;100680.13;;;9.76;67.83
77706;BME280;66874;45.274;5.880;2024-01-30T10:26:09;100689.03;;;9.93;67.35
77706;BME280;66874;45.274;5.880;2024-01-30T10:28:35;100685.66;;;10.10;67.04
77706;BME280;66874;45.274;5.880;2024-01-30T10:31:00;100684.94;;;10.23;66.59
77706;BME280;66874;45.274;5.880;2024-01-30T10:33:27;100682.53;;;10.46;66.32
77706;BME280;66874;45.274;5.880;2024-01-30T10:36:01;100679.97;;;10.57;65.99
77706;BME280;66874;45.274;5.880;2024-01-30T10:38:29;100673.97;;;10.74;65.76
77706;BME280;66874;45.274;5.880;2024-01-30T10:40:57;100681.97;;;11.02;65.32
77706;BME280;66874;45.274;5.880;2024-01-30T10:43:22;100683.81;;;11.20;64.78
77706;BME280;66874;45.274;5.880;2024-01-30T10:45:50;100672.50;;;11.36;64.34
77706;BME280;66874;45.274;5.880;2024-01-30T10:48:18;100669.06;;;11.53;63.97
77706;BME280;66874;45.274;5.880;2024-01-30T10:50:46;100670.00;;;11.73;63.63
77706;BME280;66874;45.274;5.880;2024-01-30T10:53:13;100663.94;;;12.00;62.89
77706;BME280;66874;45.274;5.880;2024-01-30T10:55:39;100661.31;;;12.26;62.13
77706;BME280;66874;45.274;5.880;2024-01-30T10:58:05;100664.81;;;12.46;61.77
77706;BME280;66874;45.274;5.880;2024-01-30T11:00:31;100663.00;;;12.75;61.20
77706;BME280;66874;45.274;5.880;2024-01-30T11:02:58;100663.78;;;12.98;60.41
77706;BME280;66874;45.274;5.880;2024-01-30T11:05:24;100663.84;;;12.86;60.15
77706;BME280;66874;45.274;5.880;2024-01-30T11:07:51;100658.59;;;12.72;60.00
77706;BME280;66874;45.274;5.880;2024-01-30T11:10:17;100660.41;;;12.47;60.64
77706;BME280;66874;45.274;5.880;2024-01-30T11:12:42;100656.94;;;12.20;60.37
77706;BME280;66874;45.274;5.880;2024-01-30T11:15:18;100651.69;;;11.97;60.79
77706;BME280;66874;45.274;5.880;2024-01-30T11:20:27;100649.94;;;12.06;60.56
77706;BME280;66874;45.274;5.880;2024-01-30T11:22:56;100646.44;;;12.07;60.11
77706;BME280;66874;45.274;5.880;2024-01-30T11:25:23;100642.06;;;11.98;60.00
77706;BME280;66874;45.274;5.880;2024-01-30T11:27:52;100642.97;;;12.15;59.79
77706;BME280;66874;45.274;5.880;2024-01-30T11:33:08;100631.50;;;12.64;58.65
77706;BME280;66874;45.274;5.880;2024-01-30T11:35:35;100629.78;;;12.48;58.69
77706;BME280;66874;45.274;5.880;2024-01-30T11:38:02;100628.94;;;12.38;58.73
77706;BME280;66874;45.274;5.880;2024-01-30T11:40:28;100623.69;;;12.38;58.78
77706;BME280;66874;45.274;5.880;2024-01-30T11:42:55;100620.19;;;12.46;58.71
77706;BME280;66874;45.274;5.880;2024-01-30T11:45:21;100617.53;;;12.56;58.43
77706;BME280;66874;45.274;5.880;2024-01-30T11:47:46;100612.25;;;12.60;58.04
77706;BME280;66874;45.274;5.880;2024-01-30T11:50:12;100615.72;;;12.81;57.83
77706;BME280;66874;45.274;5.880;2024-01-30T11:52:39;100604.25;;;13.03;57.13
77706;BME280;66874;45.274;5.880;2024-01-30T11:55:05;100599.75;;;13.25;56.83
77706;BME280;66874;45.274;5.880;2024-01-30T11:57:30;100593.63;;;13.31;56.32
77706;BME280;66874;45.274;5.880;2024-01-30T11:59:56;100597.09;;;13.36;56.06
77706;BME280;66874;45.274;5.880;2024-01-30T12:02:21;100583.81;;;13.57;55.78
77706;BME280;66874;45.274;5.880;2024-01-30T12:04:47;100589.03;;;13.59;55.67
77706;BME280;66874;45.274;5.880;2024-01-30T12:07:12;100585.50;;;13.66;55.45
77706;BME280;66874;45.274;5.880;2024-01-30T12:09:41;100575.69;;;13.86;55.18
77706;BME280;66874;45.274;5.880;2024-01-30T12:12:08;100573.38;;;14.44;54.55
77706;BME280;66874;45.274;5.880;2024-01-30T12:14:40;100568.19;;;15.11;53.49
77706;BME280;66874;45.274;5.880;2024-01-30T12:17:05;100567.41;;;15.67;52.46
77706;BME280;66874;45.274;5.880;2024-01-30T12:19:32;100566.34;;;16.28;51.51
77706;BME280;66874;45.274;5.880;2024-01-30T12:21:58;100556.47;;;16.82;50.58
77706;BME280;66874;45.274;5.880;2024-01-30T12:24:29;100561.00;;;17.19;49.48
77706;BME280;66874;45.274;5.880;2024-01-30T12:26:59;100545.31;;;17.49;49.00
77706;BME280;66874;45.274;5.880;2024-01-30T12:29:25;100547.06;;;17.48;48.62
77706;BME280;66874;45.274;5.880;2024-01-30T12:31:53;100546.13;;;17.51;48.01
77706;BME280;66874;45.274;5.880;2024-01-30T12:34:19;100538.63;;;17.70;48.03
77706;BME280;66874;45.274;5.880;2024-01-30T12:36:47;100538.13;;;18.55;47.19
77706;BME280;66874;45.274;5.880;2024-01-30T12:39:14;100533.06;;;19.36;45.31
77706;BME280;66874;45.274;5.880;2024-01-30T12:41:40;100530.41;;;19.91;44.06
77706;BME280;66874;45.274;5.880;2024-01-30T12:44:05;100515.44;;;20.63;43.20
77706;BME280;66874;45.274;5.880;2024-01-30T12:46:31;100512.81;;;21.09;42.20
77706;BME280;66874;45.274;5.880;2024-01-30T12:48:56;100515.63;;;20.82;41.34
77706;BME280;66874;45.274;5.880;2024-01-30T12:51:22;100518.41;;;19.79;42.11
77706;BME280;66874;45.274;5.880;2024-01-30T12:53:47;100514.22;;;19.45;43.25
77706;BME280;66874;45.274;5.880;2024-01-30T12:56:13;100514.50;;;19.36;43.87